sensor_id;sensor_type;location;lat;lon;timestamp;temperature;humidity
22416;DHT22;12204;50.600;4.608;2023-01-26T00:00:33;16.90;68.90
22416;DHT22;12204;50.600;4.608;2023-01-26T00:05:37;16.90;68.90
22416;DHT22;12204;50.600;4.608;2023-01-26T00:10:41;16.90;68.80
22416;DHT22;12204;50.600;4.608;2023-01-26T00:15:52;16.90;68.90
22416;DHT22;12204;50.600;4.608;2023-01-26T00:20:56;16.90;68.80
22416;DHT22;12204;50.600;4.608;2023-01-26T00:26:01;16.90;68.90
22416;DHT22;12204;50.600;4.608;2023-01-26T00:31:09;16.90;68.90
22416;DHT22;12204;50.600;4.608;2023-01-26T00:36:16;16.90;68.90
22416;DHT22;12204;50.600;4.608;2023-01-26T00:41:20;16.80;68.80
22416;DHT22;12204;50.600;4.608;2023-01-26T00:46:44;16.80;68.80
22416;DHT22;12204;50.600;4.608;2023-01-26T00:51:48;16.80;68.90
22416;DHT22;12204;50.600;4.608;2023-01-26T00:56:52;16.80;68.90
22416;DHT22;12204;50.600;4.608;2023-01-26T01:01:57;16.80;68.90
22416;DHT22;12204;50.600;4.608;2023-01-26T01:07:03;16.80;69.00
22416;DHT22;12204;50.600;4.608;2023-01-26T01:12:07;16.80;68.90
22416;DHT22;12204;50.600;4.608;2023-01-26T01:17:12;16.80;68.90
22416;DHT22;12204;50.600;4.608;2023-01-26T01:22:16;16.80;69.00
22416;DHT22;12204;50.600;4.608;2023-01-26T01:27:19;16.80;69.00
22416;DHT22;12204;50.600;4.608;2023-01-26T01:32:24;16.80;68.90
22416;DHT22;12204;50.600;4.608;2023-01-26T01:37:28;16.70;68.90
22416;DHT22;12204;50.600;4.608;2023-01-26T01:42:32;16.80;68.90
22416;DHT22;12204;50.600;4.608;2023-01-26T01:47:38;16.70;68.90
22416;DHT22;12204;50.600;4.608;2023-01-26T01:52:42;16.70;68.80
22416;DHT22;12204;50.600;4.608;2023-01-26T01:57:49;16.70;68.90
22416;DHT22;12204;50.600;4.608;2023-01-26T02:03:00;16.70;68.90
22416;DHT22;12204;50.600;4.608;2023-01-26T02:08:17;16.70;68.90
22416;DHT22;12204;50.600;4.608;2023-01-26T02:13:23;16.70;69.00
22416;DHT22;12204;50.600;4.608;2023-01-26T02:18:28;16.70;68.90
22416;DHT22;12204;50.600;4.608;2023-01-26T02:23:50;16.70;68.90
22416;DHT22;12204;50.600;4.608;2023-01-26T02:29:04;16.70;68.90
22416;DHT22;12204;50.600;4.608;2023-01-26T02:34:15;16.70;68.90
22416;DHT22;12204;50.600;4.608;2023-01-26T02:39:22;16.70;68.90
22416;DHT22;12204;50.600;4.608;2023-01-26T02:44:39;16.70;68.90
22416;DHT22;12204;50.600;4.608;2023-01-26T02:49:45;16.70;68.90
22416;DHT22;12204;50.600;4.608;2023-01-26T02:54:50;16.70;68.90
22416;DHT22;12204;50.600;4.608;2023-01-26T03:00:15;16.60;68.90
22416;DHT22;12204;50.600;4.608;2023-01-26T03:05:22;16.70;69.00
22416;DHT22;12204;50.600;4.608;2023-01-26T03:10:27;16.60;69.00
22416;DHT22;12204;50.600;4.608;2023-01-26T03:15:33;16.60;69.00
22416;DHT22;12204;50.600;4.608;2023-01-26T03:20:57;16.60;69.00
22416;DHT22;12204;50.600;4.608;2023-01-26T03:26:20;16.60;69.00
22416;DHT22;12204;50.600;4.608;2023-01-26T03:31:42;16.60;69.00
22416;DHT22;12204;50.600;4.608;2023-01-26T03:36:47;16.60;69.00
22416;DHT22;12204;50.600;4.608;2023-01-26T03:41:53;16.60;69.00
22416;DHT22;12204;50.600;4.608;2023-01-26T03:47:16;16.60;69.00
22416;DHT22;12204;50.600;4.608;2023-01-26T03:52:37;16.60;69.00
22416;DHT22;12204;50.600;4.608;2023-01-26T03:57:58;16.60;69.00
22416;DHT22;12204;50.600;4.608;2023-01-26T04:03:04;16.60;69.00
22416;DHT22;12204;50.600;4.608;2023-01-26T04:08:25;16.60;69.00
22416;DHT22;12204;50.600;4.608;2023-01-26T04:13:31;16.50;68.90
22416;DHT22;12204;50.600;4.608;2023-01-26T04:19:03;16.60;69.00
22416;DHT22;12204;50.600;4.608;2023-01-26T04:24:24;16.60;69.00
22416;DHT22;12204;50.600;4.608;2023-01-26T04:29:31;16.50;69.10
22416;DHT22;12204;50.600;4.608;2023-01-26T04:34:36;16.50;69.10
22416;DHT22;12204;50.600;4.608;2023-01-26T04:39:48;16.50;69.10
22416;DHT22;12204;50.600;4.608;2023-01-26T04:44:52;16.50;69.00
22416;DHT22;12204;50.600;4.608;2023-01-26T04:49:58;16.50;69.00
22416;DHT22;12204;50.600;4.608;2023-01-26T04:55:02;16.50;69.10
22416;DHT22;12204;50.600;4.608;2023-01-26T05:00:09;16.50;69.20
22416;DHT22;12204;50.600;4.608;2023-01-26T05:05:17;16.50;69.10
22416;DHT22;12204;50.600;4.608;2023-01-26T05:10:21;16.50;69.20
22416;DHT22;12204;50.600;4.608;2023-01-26T05:16:04;16.50;69.20
22416;DHT22;12204;50.600;4.608;2023-01-26T05:21:28;16.50;69.10
22416;DHT22;12204;50.600;4.608;2023-01-26T05:26:33;16.50;69.10
22416;DHT22;12204;50.600;4.608;2023-01-26T05:31:39;16.50;69.20
22416;DHT22;12204;50.600;4.608;2023-01-26T05:36:44;16.50;69.10
22416;DHT22;12204;50.600;4.608;2023-01-26T05:41:48;16.40;69.10
22416;DHT22;12204;50.600;4.608;2023-01-26T05:46:52;16.40;69.10
22416;DHT22;12204;50.600;4.608;2023-01-26T05:51:57;16.40;69.10
22416;DHT22;12204;50.600;4.608;2023-01-26T05:57:03;16.40;69.10
22416;DHT22;12204;50.600;4.608;2023-01-26T06:02:11;16.40;69.10
22416;DHT22;12204;50.600;4.608;2023-01-26T06:07:19;16.40;69.10
22416;DHT22;12204;50.600;4.608;2023-01-26T06:12:42;16.40;69.10
22416;DHT22;12204;50.600;4.608;2023-01-26T06:18:10;16.40;69.10
22416;DHT22;12204;50.600;4.608;2023-01-26T06:23:20;16.40;69.10
22416;DHT22;12204;50.600;4.608;2023-01-26T06:28:26;16.40;69.10
22416;DHT22;12204;50.600;4.608;2023-01-26T06:33:31;16.40;69.10
22416;DHT22;12204;50.600;4.608;2023-01-26T06:38:44;16.40;69.10
22416;DHT22;12204;50.600;4.608;2023-01-26T06:43:48;16.40;69.20
22416;DHT22;12204;50.600;4.608;2023-01-26T06:48:53;16.40;69.20
22416;DHT22;12204;50.600;4.608;2023-01-26T06:53:58;16.40;69.20
22416;DHT22;12204;50.600;4.608;2023-01-26T06:59:10;16.40;69.20
22416;DHT22;12204;50.600;4.608;2023-01-26T07:04:32;16.40;69.20
22416;DHT22;12204;50.600;4.608;2023-01-26T07:09:37;16.40;69.30
22416;DHT22;12204;50.600;4.608;2023-01-26T07:14:41;16.30;69.20
22416;DHT22;12204;50.600;4.608;2023-01-26T07:19:45;16.40;69.20
22416;DHT22;12204;50.600;4.608;2023-01-26T07:24:50;16.40;69.30
22416;DHT22;12204;50.600;4.608;2023-01-26T07:29:53;16.30;69.20
22416;DHT22;12204;50.600;4.608;2023-01-26T07:34:57;16.30;69.20
22416;DHT22;12204;50.600;4.608;2023-01-26T07:40:03;16.30;69.30
22416;DHT22;12204;50.600;4.608;2023-01-26T07:45:08;16.30;69.30
22416;DHT22;12204;50.600;4.608;2023-01-26T07:50:13;16.30;69.40
22416;DHT22;12204;50.600;4.608;2023-01-26T07:55:19;16.30;69.40
22416;DHT22;12204;50.600;4.608;2023-01-26T08:00:26;16.30;69.40
22416;DHT22;12204;50.600;4.608;2023-01-26T08:05:31;16.30;69.30
22416;DHT22;12204;50.600;4.608;2023-01-26T08:10:38;16.30;69.40
22416;DHT22;12204;50.600;4.608;2023-01-26T08:15:41;16.30;69.40
22416;DHT22;12204;50.600;4.608;2023-01-26T08:20:50;16.30;69.40
22416;DHT22;12204;50.600;4.608;2023-01-26T08:25:59;16.30;69.50
22416;DHT22;12204;50.600;4.608;2023-01-26T08:31:04;16.30;69.40
22416;DHT22;12204;50.600;4.608;2023-01-26T08:36:14;16.30;69.50
22416;DHT22;12204;50.600;4.608;2023-01-26T08:41:19;16.30;69.50
22416;DHT22;12204;50.600;4.608;2023-01-26T08:46:23;16.30;69.50
22416;DHT22;12204;50.600;4.608;2023-01-26T08:51:26;16.30;69.40
22416;DHT22;12204;50.600;4.608;2023-01-26T08:56:32;16.20;69.30
22416;DHT22;12204;50.600;4.608;2023-01-26T09:01:35;16.30;69.50
22416;DHT22;12204;50.600;4.608;2023-01-26T09:06:39;16.20;69.40
22416;DHT22;12204;50.600;4.608;2023-01-26T09:11:44;16.20;69.40
22416;DHT22;12204;50.600;4.608;2023-01-26T09:16:48;16.20;69.40
22416;DHT22;12204;50.600;4.608;2023-01-26T09:21:52;16.30;69.40
22416;DHT22;12204;50.600;4.608;2023-01-26T09:26:57;16.20;69.40
22416;DHT22;12204;50.600;4.608;2023-01-26T09:32:01;16.20;69.30
22416;DHT22;12204;50.600;4.608;2023-01-26T09:37:05;16.20;69.30
22416;DHT22;12204;50.600;4.608;2023-01-26T09:42:20;16.20;69.30
22416;DHT22;12204;50.600;4.608;2023-01-26T09:47:44;16.20;69.40
22416;DHT22;12204;50.600;4.608;2023-01-26T09:53:03;16.20;69.40
22416;DHT22;12204;50.600;4.608;2023-01-26T09:58:16;16.20;69.40
22416;DHT22;12204;50.600;4.608;2023-01-26T10:03:31;16.20;69.50
22416;DHT22;12204;50.600;4.608;2023-01-26T10:08:41;16.20;69.50
22416;DHT22;12204;50.600;4.608;2023-01-26T10:13:52;16.20;69.60
22416;DHT22;12204;50.600;4.608;2023-01-26T10:19:03;16.20;69.50
22416;DHT22;12204;50.600;4.608;2023-01-26T10:24:13;16.20;69.50
22416;DHT22;12204;50.600;4.608;2023-01-26T10:29:22;16.20;69.50
22416;DHT22;12204;50.600;4.608;2023-01-26T10:34:26;16.20;69.50
22416;DHT22;12204;50.600;4.608;2023-01-26T10:39:30;16.20;69.50
22416;DHT22;12204;50.600;4.608;2023-01-26T10:44:37;16.20;69.60
22416;DHT22;12204;50.600;4.608;2023-01-26T10:49:41;16.20;69.50
22416;DHT22;12204;50.600;4.608;2023-01-26T10:54:45;16.20;69.50
22416;DHT22;12204;50.600;4.608;2023-01-26T10:59:53;16.20;69.70
22416;DHT22;12204;50.600;4.608;2023-01-26T11:05:12;16.20;69.70
22416;DHT22;12204;50.600;4.608;2023-01-26T11:10:24;16.20;69.70
22416;DHT22;12204;50.600;4.608;2023-01-26T11:15:37;16.20;69.60
22416;DHT22;12204;50.600;4.608;2023-01-26T11:20:53;16.20;69.70
22416;DHT22;12204;50.600;4.608;2023-01-26T11:32:16;16.20;70.40
22416;DHT22;12204;50.600;4.608;2023-01-26T11:37:38;16.20;69.70
22416;DHT22;12204;50.600;4.608;2023-01-26T11:42:55;16.10;69.60
22416;DHT22;12204;50.600;4.608;2023-01-26T11:48:17;16.20;69.70
22416;DHT22;12204;50.600;4.608;2023-01-26T11:53:39;16.10;69.70
22416;DHT22;12204;50.600;4.608;2023-01-26T11:59:05;16.10;69.70
22416;DHT22;12204;50.600;4.608;2023-01-26T12:04:18;16.10;69.70
22416;DHT22;12204;50.600;4.608;2023-01-26T12:09:26;16.10;69.80
22416;DHT22;12204;50.600;4.608;2023-01-26T12:14:38;16.10;69.80
22416;DHT22;12204;50.600;4.608;2023-01-26T12:19:55;16.10;69.80
22416;DHT22;12204;50.600;4.608;2023-01-26T12:25:21;16.10;69.80
22416;DHT22;12204;50.600;4.608;2023-01-26T12:30:35;16.10;69.80
22416;DHT22;12204;50.600;4.608;2023-01-26T12:36:07;16.10;69.80
22416;DHT22;12204;50.600;4.608;2023-01-26T12:41:29;16.10;69.80
22416;DHT22;12204;50.600;4.608;2023-01-26T12:46:46;16.10;69.80
22416;DHT22;12204;50.600;4.608;2023-01-26T12:51:58;16.10;69.90
22416;DHT22;12204;50.600;4.608;2023-01-26T12:57:12;16.10;69.90
22416;DHT22;12204;50.600;4.608;2023-01-26T13:02:26;16.10;69.90
22416;DHT22;12204;50.600;4.608;2023-01-26T13:07:36;16.10;70.00
22416;DHT22;12204;50.600;4.608;2023-01-26T13:12:46;16.10;69.90
22416;DHT22;12204;50.600;4.608;2023-01-26T13:17:56;16.10;70.00
22416;DHT22;12204;50.600;4.608;2023-01-26T13:34:40;16.10;70.00
22416;DHT22;12204;50.600;4.608;2023-01-26T13:39:51;16.10;69.90
22416;DHT22;12204;50.600;4.608;2023-01-26T13:45:03;16.00;70.00
22416;DHT22;12204;50.600;4.608;2023-01-26T13:50:28;16.10;70.00
22416;DHT22;12204;50.600;4.608;2023-01-26T13:55:35;16.10;70.00
22416;DHT22;12204;50.600;4.608;2023-01-26T14:00:56;16.00;70.00
22416;DHT22;12204;50.600;4.608;2023-01-26T14:06:03;16.00;70.00
22416;DHT22;12204;50.600;4.608;2023-01-26T14:11:17;16.00;70.00
22416;DHT22;12204;50.600;4.608;2023-01-26T14:16:27;16.00;70.00
22416;DHT22;12204;50.600;4.608;2023-01-26T14:21:45;16.00;70.00
22416;DHT22;12204;50.600;4.608;2023-01-26T14:26:53;16.00;70.10
22416;DHT22;12204;50.600;4.608;2023-01-26T14:31:58;16.00;70.10
22416;DHT22;12204;50.600;4.608;2023-01-26T14:37:07;16.00;70.10
22416;DHT22;12204;50.600;4.608;2023-01-26T14:42:18;16.00;70.10
22416;DHT22;12204;50.600;4.608;2023-01-26T14:47:26;16.00;70.20
22416;DHT22;12204;50.600;4.608;2023-01-26T14:52:33;16.00;70.20
22416;DHT22;12204;50.600;4.608;2023-01-26T14:57:40;16.00;70.10
22416;DHT22;12204;50.600;4.608;2023-01-26T15:02:46;16.00;70.20
22416;DHT22;12204;50.600;4.608;2023-01-26T15:07:55;16.00;70.20
22416;DHT22;12204;50.600;4.608;2023-01-26T15:13:05;16.00;70.20
22416;DHT22;12204;50.600;4.608;2023-01-26T15:18:21;16.00;70.90
22416;DHT22;12204;50.600;4.608;2023-01-26T15:23:34;16.00;70.20
22416;DHT22;12204;50.600;4.608;2023-01-26T15:28:41;16.00;70.20
22416;DHT22;12204;50.600;4.608;2023-01-26T15:33:47;16.00;70.20
22416;DHT22;12204;50.600;4.608;2023-01-26T15:38:58;16.00;70.20
22416;DHT22;12204;50.600;4.608;2023-01-26T15:44:13;16.00;70.20
22416;DHT22;12204;50.600;4.608;2023-01-26T15:49:18;16.00;70.20
22416;DHT22;12204;50.600;4.608;2023-01-26T15:54:23;15.90;70.20
22416;DHT22;12204;50.600;4.608;2023-01-26T15:59:28;15.90;70.30
22416;DHT22;12204;50.600;4.608;2023-01-26T16:04:32;15.90;70.20
22416;DHT22;12204;50.600;4.608;2023-01-26T16:09:36;16.00;70.30
22416;DHT22;12204;50.600;4.608;2023-01-26T16:14:41;15.90;70.30
22416;DHT22;12204;50.600;4.608;2023-01-26T16:19:44;15.90;70.20
22416;DHT22;12204;50.600;4.608;2023-01-26T16:24:48;15.90;70.20
22416;DHT22;12204;50.600;4.608;2023-01-26T16:29:53;15.90;70.30
22416;DHT22;12204;50.600;4.608;2023-01-26T16:34:57;15.90;70.30
22416;DHT22;12204;50.600;4.608;2023-01-26T16:40:00;15.90;70.30
22416;DHT22;12204;50.600;4.608;2023-01-26T16:45:13;15.90;70.30
22416;DHT22;12204;50.600;4.608;2023-01-26T16:50:19;15.90;70.40
22416;DHT22;12204;50.600;4.608;2023-01-26T16:55:23;15.90;70.40
22416;DHT22;12204;50.600;4.608;2023-01-26T17:00:28;15.90;70.40
22416;DHT22;12204;50.600;4.608;2023-01-26T17:05:32;15.90;70.50
22416;DHT22;12204;50.600;4.608;2023-01-26T17:10:36;15.90;70.40
22416;DHT22;12204;50.600;4.608;2023-01-26T17:16:02;15.90;70.40
22416;DHT22;12204;50.600;4.608;2023-01-26T17:21:06;15.90;70.40
22416;DHT22;12204;50.600;4.608;2023-01-26T17:26:11;15.90;70.40
22416;DHT22;12204;50.600;4.608;2023-01-26T17:31:20;15.90;70.40
22416;DHT22;12204;50.600;4.608;2023-01-26T17:36:25;15.90;70.50
22416;DHT22;12204;50.600;4.608;2023-01-26T17:41:29;15.90;70.50
22416;DHT22;12204;50.600;4.608;2023-01-26T17:46:34;15.90;70.50
22416;DHT22;12204;50.600;4.608;2023-01-26T17:51:38;15.90;70.50
22416;DHT22;12204;50.600;4.608;2023-01-26T17:56:42;15.80;70.40
22416;DHT22;12204;50.600;4.608;2023-01-26T18:01:47;15.90;70.50
22416;DHT22;12204;50.600;4.608;2023-01-26T18:06:51;15.80;70.40
22416;DHT22;12204;50.600;4.608;2023-01-26T18:11:54;15.90;70.50
22416;DHT22;12204;50.600;4.608;2023-01-26T18:17:00;15.80;70.50
22416;DHT22;12204;50.600;4.608;2023-01-26T18:22:03;15.80;70.40
22416;DHT22;12204;50.600;4.608;2023-01-26T18:27:07;15.80;70.50
22416;DHT22;12204;50.600;4.608;2023-01-26T18:32:12;15.80;70.60
22416;DHT22;12204;50.600;4.608;2023-01-26T18:37:16;15.80;70.50
22416;DHT22;12204;50.600;4.608;2023-01-26T18:42:20;15.80;70.50
22416;DHT22;12204;50.600;4.608;2023-01-26T18:47:25;15.80;70.60
22416;DHT22;12204;50.600;4.608;2023-01-26T18:52:29;15.90;70.70
22416;DHT22;12204;50.600;4.608;2023-01-26T18:57:33;15.80;70.50
22416;DHT22;12204;50.600;4.608;2023-01-26T19:02:38;15.80;70.50
22416;DHT22;12204;50.600;4.608;2023-01-26T19:07:42;15.80;70.50
22416;DHT22;12204;50.600;4.608;2023-01-26T19:12:47;15.80;70.50
22416;DHT22;12204;50.600;4.608;2023-01-26T19:17:53;15.80;70.60
22416;DHT22;12204;50.600;4.608;2023-01-26T19:22:56;15.80;70.60
22416;DHT22;12204;50.600;4.608;2023-01-26T19:28:03;15.80;70.60
22416;DHT22;12204;50.600;4.608;2023-01-26T19:33:08;15.80;70.60
22416;DHT22;12204;50.600;4.608;2023-01-26T19:38:30;15.80;70.60
22416;DHT22;12204;50.600;4.608;2023-01-26T19:43:35;15.80;70.70
22416;DHT22;12204;50.600;4.608;2023-01-26T19:48:40;15.80;70.80
22416;DHT22;12204;50.600;4.608;2023-01-26T19:53:46;15.80;70.70
22416;DHT22;12204;50.600;4.608;2023-01-26T19:58:53;15.80;70.70
22416;DHT22;12204;50.600;4.608;2023-01-26T20:04:01;15.80;70.70
22416;DHT22;12204;50.600;4.608;2023-01-26T20:09:07;15.80;70.80
22416;DHT22;12204;50.600;4.608;2023-01-26T20:14:11;15.80;70.70
22416;DHT22;12204;50.600;4.608;2023-01-26T20:19:16;15.70;70.70
22416;DHT22;12204;50.600;4.608;2023-01-26T20:24:20;15.80;70.80
22416;DHT22;12204;50.600;4.608;2023-01-26T20:29:24;15.80;70.90
22416;DHT22;12204;50.600;4.608;2023-01-26T20:34:29;15.70;70.80
22416;DHT22;12204;50.600;4.608;2023-01-26T20:39:33;15.70;70.90
22416;DHT22;12204;50.600;4.608;2023-01-26T20:44:36;15.70;70.80
22416;DHT22;12204;50.600;4.608;2023-01-26T20:49:44;15.70;70.70
22416;DHT22;12204;50.600;4.608;2023-01-26T20:54:48;15.80;70.80
22416;DHT22;12204;50.600;4.608;2023-01-26T20:59:52;15.70;70.90
22416;DHT22;12204;50.600;4.608;2023-01-26T21:04:57;15.70;70.80
22416;DHT22;12204;50.600;4.608;2023-01-26T21:10:01;15.70;70.90
22416;DHT22;12204;50.600;4.608;2023-01-26T21:15:06;15.70;70.80
22416;DHT22;12204;50.600;4.608;2023-01-26T21:20:12;15.70;70.90
22416;DHT22;12204;50.600;4.608;2023-01-26T21:25:16;15.70;70.90
22416;DHT22;12204;50.600;4.608;2023-01-26T21:30:20;15.70;70.80
22416;DHT22;12204;50.600;4.608;2023-01-26T21:35:25;15.70;70.80
22416;DHT22;12204;50.600;4.608;2023-01-26T21:40:29;15.70;70.90
22416;DHT22;12204;50.600;4.608;2023-01-26T21:45:33;15.70;70.90
22416;DHT22;12204;50.600;4.608;2023-01-26T21:50:57;15.70;70.80
22416;DHT22;12204;50.600;4.608;2023-01-26T21:56:18;15.70;70.80
22416;DHT22;12204;50.600;4.608;2023-01-26T22:01:23;15.70;70.90
22416;DHT22;12204;50.600;4.608;2023-01-26T22:06:28;15.70;70.90
22416;DHT22;12204;50.600;4.608;2023-01-26T22:11:32;15.70;70.80
22416;DHT22;12204;50.600;4.608;2023-01-26T22:16:36;15.70;70.90
22416;DHT22;12204;50.600;4.608;2023-01-26T22:21:41;15.70;70.90
22416;DHT22;12204;50.600;4.608;2023-01-26T22:26:45;15.70;70.90
22416;DHT22;12204;50.600;4.608;2023-01-26T22:31:49;15.70;70.90
22416;DHT22;12204;50.600;4.608;2023-01-26T22:36:55;15.70;71.00
22416;DHT22;12204;50.600;4.608;2023-01-26T22:41:58;15.70;71.10
22416;DHT22;12204;50.600;4.608;2023-01-26T22:47:02;15.70;71.80
22416;DHT22;12204;50.600;4.608;2023-01-26T22:52:08;15.70;71.00
22416;DHT22;12204;50.600;4.608;2023-01-26T22:57:11;15.70;71.00
22416;DHT22;12204;50.600;4.608;2023-01-26T23:02:15;15.70;71.10
22416;DHT22;12204;50.600;4.608;2023-01-26T23:07:20;15.70;71.00
22416;DHT22;12204;50.600;4.608;2023-01-26T23:12:25;15.70;70.90
22416;DHT22;12204;50.600;4.608;2023-01-26T23:17:28;15.70;71.10
22416;DHT22;12204;50.600;4.608;2023-01-26T23:22:34;15.70;71.10
22416;DHT22;12204;50.600;4.608;2023-01-26T23:27:37;15.70;71.10
22416;DHT22;12204;50.600;4.608;2023-01-26T23:32:41;15.70;71.10
22416;DHT22;12204;50.600;4.608;2023-01-26T23:37:46;15.70;71.00
22416;DHT22;12204;50.600;4.608;2023-01-26T23:42:50;15.70;71.10
22416;DHT22;12204;50.600;4.608;2023-01-26T23:48:14;15.70;71.10
22416;DHT22;12204;50.600;4.608;2023-01-26T23:53:20;15.70;71.10
22416;DHT22;12204;50.600;4.608;2023-01-26T23:58:24;15.70;71.20
